Weather observations for the past three days for
Bryan Coulter Field
Metric (Imperial)
Date Time (cdt) Wind (kph) Vis. (km) Weather Sky Cond. Temperature (ºC) Relative Humidity Wind Chill (°C) Heat Index (°C) Pressure Precipitation (cm)
Air Dwpt 6 hour altimeter (cm) sea level (mb) 1 hr 3 hr 6 hr
Max. Min.
05 19:35 E 11 16.09 Fair CLR 28.1 22.6 72% 31 75.95 0.0
05 19:15 E 11 16.09 Fair CLR 28.8 22.4 68% 32 75.97 0.0
05 18:55 E 13 16.09 Fair CLR 29.2 22.5 35.3 29.2 67% 33 75.97 0.0
05 18:35 E 15 16.09 Fair CLR 29.5 22.9 68% 33 75.95 0.0
05 18:15 E 17 G 26 16.09 Fair CLR 30 22.8 65% 34 75.95 0.0
05 17:55 E 26 16.09 Fair CLR 31.6 23.3 61% 37 75.92 0.0
05 17:35 Calm 16.09 Fair CLR 31.2 23.2 62% 36 75.92 0.0
05 17:15 E 6 16.09 Fair CLR 29.6 23.2 69% 34 75.95 0.0
05 16:55 E 13 16.09 Fair CLR 30.4 23.1 65% 35 75.92 0.0
05 16:35 Calm 16.09 Partly Cloudy SCT120 32.7 21.8 53% 36 75.92 0.0
05 16:15 Calm 16.09 Partly Cloudy SCT120 32.7 21.6 52% 36 75.95 0.0
05 15:55 W 7 16.09 Partly Cloudy SCT100 33 21.6 51% 37 75.95 0.0
05 15:35 W 11 16.09 Thunderstorm in Vicinity BKN100 33.6 22.6 53% 38 75.97 0.0
05 15:15 W 13 16.09 Partly Cloudy SCT120 31.7 23 60% 36 75.97 0.0
05 14:55 W 13 16.09 Partly Cloudy SCT055 30.4 22.8 64% 34 76 0.0
05 12:55 S 9 16.09 Mostly Cloudy BKN049 BKN060 33.4 21.6 34.7 23.7 50% 37 76.1 0.0
05 12:35 Calm 16.09 Mostly Cloudy SCT043 BKN049 33.9 21.9 49% 38 76.12 0.0
05 12:15 Calm 16.09 Partly Cloudy SCT041 33.2 21.9 51% 37 76.15 0.0
05 11:55 Calm 16.09 Mostly Cloudy BKN039 32.5 22.5 56% 37 76.17 0.0
05 11:35 SW 7 16.09 Overcast BKN039 BKN044 OVC050 32.3 22.9 58% 37 76.15 0.0
05 11:15 SW 7 16.09 Partly Cloudy SCT035 SCT050 31.3 22.6 60% 35 76.17 0.0
05 10:55 Calm 16.09 Fair CLR 31.9 22.5 58% 36 76.17 0.0
05 10:35 S 7 16.09 Partly Cloudy SCT026 31.5 23.2 61% 36 76.17 0.0
05 10:15 SW 6 16.09 Partly Cloudy SCT024 31 23.8 66% 36 76.17 0.0
05 09:55 W 7 16.09 Fair CLR 30 24 70% 35 76.17 0.0
05 09:35 Calm 16.09 Fair CLR 28.9 24.3 76% 34 76.17 0.0
05 09:15 Calm 16.09 Fair CLR 28.2 24.7 81% 33 76.17 0.0
05 08:55 Calm 16.09 Fair CLR 27.3 24.7 86% 31 76.17 0.0
05 08:35 Calm 16.09 Fair CLR 26.5 24.6 89% 29 76.17 0.0
05 08:15 Calm 16.09 Fair CLR 25.2 24.5 96% 26 76.15 0.0
05 07:55 Calm 11.27 Fair CLR 24.5 24 97% 24 76.12 0.0
05 07:35 Calm 11.27 Fair CLR 23.8 23.5 98% 76.12 0.0
05 07:15 Calm 11.27 Fair CLR 23.7 23.3 98% 76.1 0.0
05 06:55 Calm 16.09 Fair CLR 23.8 23.3 27.2 23.7 97% 76.1 0.0
05 06:35 Calm 16.09 Fair CLR 24 23.5 97% 23 76.07 0.0
05 06:15 Calm 16.09 Fair CLR 24.1 23.5 96% 23 76.07 0.0
05 05:55 Calm 16.09 Fair CLR 24.4 23.7 96% 24 76.07 0.0
05 05:35 Calm 16.09 Fair CLR 24.2 23.3 95% 24 76.05 0.0
05 05:15 Calm 16.09 Fair CLR 24.8 23.5 93% 25 76.05 0.0
05 04:55 Calm 16.09 Fair CLR 25.7 23.9 90% 27 76.05 0.0
05 04:35 Calm 16.09 Fair CLR 25.3 23.8 91% 26 76.05 0.0
05 04:15 Calm 16.09 Fair CLR 25.6 23.8 90% 27 76.05 0.0
05 03:55 Calm 16.09 Fair CLR 25.8 23.8 89% 28 76.05 0.0
05 03:35 SW 6 16.09 Fair CLR 26 23.8 88% 28 76.05 0.0
05 03:15 Calm 16.09 Fair CLR 26.2 23.8 87% 28 76.05 0.0
05 02:55 S 6 16.09 Fair CLR 26.5 24 86% 29 76.05 0.0
05 02:35 S 6 16.09 Fair CLR 26.5 24 86% 29 76.05 0.0
05 02:15 S 9 16.09 Fair CLR 26.6 23.8 85% 29 76.05 0.0
05 01:55 S 7 16.09 Fair CLR 27 23.8 83% 30 76.07 0.0
05 01:35 S 11 16.09 Fair CLR 27 23.7 82% 30 76.07 0.0
05 01:15 S 13 16.09 Fair CLR 27.1 23.5 81% 30 76.07 0.0
05 00:55 S 9 16.09 Fair CLR 27 23.3 32.2 26.2 80% 30 76.1 0.0
05 00:35 S 7 16.09 Fair CLR 27.2 23.1 78% 30 76.1 0.0
05 00:15 S 6 16.09 Fair CLR 26.7 23 80% 29 76.07 0.0
04 23:55 S 7 16.09 Fair CLR 26.9 23 79% 29 76.07 0.0
04 23:35 S 9 16.09 Fair CLR 27.2 23 78% 30 76.07 0.0
04 23:15 S 9 16.09 Fair CLR 27.2 23 78% 30 76.07 0.0
04 22:55 SE 7 16.09 Fair CLR 26.9 23 79% 29 76.1 0.0
04 22:35 SE 11 16.09 Fair CLR 27.3 22.8 76% 30 76.1 0.0
04 22:15 SE 9 16.09 Fair CLR 26.2 22.7 81% 28 76.1 0.0
04 21:55 SE 7 16.09 Fair CLR 26.6 22.6 79% 29 76.07 0.0
04 21:35 SE 9 16.09 Fair CLR 26.7 22.5 78% 29 76.07 0.0
04 21:15 SE 7 16.09 Fair CLR 27 22.3 76% 29 76.07 0.0
04 20:55 S 7 16.09 Fair CLR 28 21.8 69% 31 76.05 0.0
04 20:35 SE 7 16.09 Fair CLR 28 21.7 69% 30 76.05 0.0
04 20:15 SE 7 16.09 Fair CLR 28.3 21.5 67% 31 76.02 0.0
04 19:55 SE 9 16.09 Fair CLR 29.5 21 60% 32 76 0.0
04 19:35 SE 11 16.09 Fair CLR 30.5 20.3 54% 33 75.97 0.0
04 19:15 SE 9 16.09 Fair CLR 31.6 20.5 52% 34 75.97 0.0
04 18:55 SE 13 16.09 Fair CLR 32.4 20.5 33.4 31.6 49% 35 76 0.0
04 18:35 Calm 16.09 Fair CLR 32.9 20.2 47% 35 75.97 0.0
04 18:15 S 13 16.09 Fair CLR 33 19.4 45% 35 75.97 0.0
04 17:55 S 13 16.09 Fair CLR 33.3 20.7 48% 36 75.97 0.0
04 17:35 S 17 16.09 Fair CLR 33.4 20.8 48% 36 75.97 0.0
04 17:15 SE 11 16.09 Fair CLR 33.3 21.6 50% 37 76 0.0
04 16:55 SE 15 16.09 Fair CLR 33 21.8 52% 37 76 0.0
04 16:35 S 15 16.09 Fair CLR 33.2 22.5 53% 38 76.02 0.0
04 16:15 SE 13 16.09 Fair CLR 33.1 24.2 60% 40 76.05 0.0
04 15:55 SE 17 G 26 16.09 Fair CLR 32.3 23.9 61% 38 76.05 0.0
04 15:35 SE 17 16.09 Fair CLR 31.8 23.9 63% 38 76.05 0.0
04 15:15 S 11 16.09 Fair CLR 31.7 24.1 64% 38 76.07 0.0
04 14:55 SE 15 16.09 Fair CLR 32 23.8 62% 38 76.07 0.0
04 14:35 SE 15 16.09 Fair CLR 32.6 24.5 62% 39 76.07 0.0
04 14:15 SE 15 16.09 Fair CLR 31.9 24.4 65% 38 76.12 0.0
04 13:55 SE 15 16.09 Fair CLR 32.2 24.1 62% 38 76.12 0.0
04 13:35 SE 15 16.09 Fair CLR 31.9 23.5 61% 37 76.15 0.0
04 13:15 S 13 16.09 Fair CLR 31.9 23 59% 37 76.15 0.0
04 12:55 S 9 16.09 Fair CLR 31.9 23.1 33.6 25.5 60% 37 76.17 0.0
04 12:35 S 9 16.09 Partly Cloudy SCT041 SCT060 SCT120 32.3 23 58% 37 76.17 0.0
04 12:15 S 15 G 26 16.09 Overcast SCT039 BKN055 OVC120 33.4 22.8 54% 38 76.2 0.0
04 11:55 S 6 16.09 Mostly Cloudy SCT040 SCT046 BKN070 33.1 23.6 57% 39 76.2 0.0
04 11:35 SE 9 16.09 Mostly Cloudy SCT034 BKN041 31.9 23.4 61% 37 76.2 0.0
04 11:15 Calm 16.09 Partly Cloudy SCT032 31.4 23 61% 36 76.2 0.0
04 10:55 SE 7 16.09 Partly Cloudy SCT024 30 24.4 72% 36 76.2 0.0
04 10:35 S 13 16.09 Partly Cloudy SCT024 31.1 23.9 66% 37 76.2 0.0
04 10:15 S 9 16.09 Partly Cloudy SCT018 30.5 24.7 71% 37 76.2 0.0
04 09:55 S 13 16.09 Partly Cloudy SCT013 SCT018 29.8 25.4 77% 36 76.17 0.0
04 09:35 SE 11 16.09 Mostly Cloudy BKN013 BKN018 28.7 26.1 86% 35 76.17 0.0
04 09:15 SE 6 16.09 Partly Cloudy SCT011 28.4 25.7 85% 34 76.17 0.0
04 08:55 E 6 16.09 Partly Cloudy SCT009 SCT014 28 25.7 87% 33 76.17 0.0
04 08:35 SE 6 16.09 Partly Cloudy SCT009 27.7 25.8 89% 33 76.17 0.0
04 08:15 SE 11 16.09 Fair CLR 27 26.1 95% 31 76.15 0.0
04 07:55 E 6 16.09 Fair CLR 26.1 25.7 98% 29 76.12 0.0
04 07:35 Calm 11.27 Light Drizzle SCT011 SCT100 25.7 25.3 98% 27 76.12 0.0
04 07:15 Calm 8.05 Fog/Mist SCT003 SCT100 25.5 25 97% 27 76.1 0.0
04 06:55 E 6 11.27 Partly Cloudy SCT002 25.5 25 26.4 25.5 97% 27 76.07 0.0
04 06:35 E 6 8.05 Fog/Mist SCT002 25.5 25 97% 27 76.07 0.0
04 06:15 E 6 11.27 Fair CLR 25.5 25.1 98% 27 76.05 0.0
04 05:55 Calm 11.27 Fair CLR 25.5 25.1 98% 27 76.05 0.0
04 05:35 Calm 16.09 Fair CLR 25.7 25.2 97% 27 76.05 0.0
04 05:15 Calm 16.09 Fair CLR 25.6 25.1 97% 27 76.05 0.0
04 04:55 Calm 16.09 Partly Cloudy SCT110 25.6 25.1 97% 27 76.05 0.0
04 04:35 Calm 16.09 Fair CLR 25.5 25 97% 27 76.05 0.0
04 04:15 Calm 16.09 Partly Cloudy SCT013 25.6 25 97% 27 76.05 0.0
04 03:55 E 6 16.09 Mostly Cloudy BKN013 25.8 25.1 96% 28 76.05 0.0
04 03:35 SE 6 16.09 Mostly Cloudy SCT015 BKN120 26 25.2 95% 28 76.05 0.0
04 03:15 S 9 16.09 Mostly Cloudy SCT018 SCT023 BKN120 26.2 25.3 95% 29 76.05 0.0
04 02:55 S 9 16.09 Light Rain SCT020 SCT055 OVC120 26.3 25.2 94% 29 76.05 0.0
04 02:35 S 11 16.09 Overcast SCT047 SCT060 OVC110 26.2 25.2 94% 29 76.05 0.0
04 02:15 S 9 16.09 Overcast OVC110 26.1 25.2 95% 29 76.05 0.0
04 01:55 S 6 16.09 Overcast BKN011 OVC110 26 25.1 95% 28 76.07 0.0
04 01:35 E 6 16.09 Overcast BKN011 OVC120 25.6 24.7 95% 27 76.07 0.0
04 01:15 Calm 16.09 Overcast SCT015 OVC120 26 24.8 93% 28 76.07 0.0
04 00:55 SE 7 16.09 Overcast SCT015 OVC110 26.1 24.6 26.1 25.5 91% 28 76.07 0.0 0.03
04 00:35 Calm 16.09 Rain OVC110 26 24.3 90% 28 76.07 0.0
04 00:15 SE 6 16.09 Light Drizzle OVC110 26 24.1 89% 28 76.05 0.0
03 23:55 SE 7 16.09 Overcast OVC100 25.6 24 91% 27 76.05 0.0
03 23:35 SE 11 16.09 Overcast BKN100 OVC120 25.5 24 91% 27 76.05 0.0
03 23:15 E 6 16.09 Overcast OVC120 25.5 24 91% 27 76.07 0.0
03 22:55 E 7 16.09 Mostly Cloudy BKN110 25.5 23.9 91% 27 76.07 0.0
03 22:35 E 6 16.09 Fair CLR 25.6 23.8 90% 27 76.05 0.0
03 22:15 SE 7 16.09 Fair CLR 25.6 23.7 89% 27 76.05 0.0
03 21:55 SE 9 16.09 Partly Cloudy SCT120 25.6 23.6 89% 27 76.05 0.0 0.03
03 21:35 SE 7 16.09 Overcast OVC120 25.8 23.6 88% 27 76.05 0.0
03 21:15 SE 7 16.09 Mostly Cloudy BKN120 26 23.5 86% 28 76 0.0
03 20:55 SE 15 16.09 Fair CLR 26 23.5 86% 28 76 0.0
03 20:35 SE 13 16.09 Fair CLR 26.1 23.4 85% 28 75.97 0.0
03 20:15 SE 11 16.09 Fair CLR 26.1 23.4 85% 28 75.95 0.0
03 19:55 SE 13 16.09 Fair CLR 26.1 23.5 86% 28 75.95 0.0 0.03
03 19:35 SE 13 16.09 Fair CLR 26 23.9 88% 28 75.95 0.0 0.03
03 19:15 SE 9 16.09 Light Rain SCT050 SCT070 SCT100 26 24.4 91% 28 75.95 0.0 0.03
03 18:55 SE 9 16.09 Mostly Cloudy SCT055 SCT100 BKN120 26.1 24.1 27 25.2 89% 28 75.95 0.0 0.1
03 18:35 SE 11 16.09 Partly Cloudy SCT120 26.3 24.1 88% 29 75.95 0.0
03 18:15 SE 13 16.09 Mostly Cloudy SCT080 BKN110 26.5 24.3 88% 29 75.97 0.0
03 17:55 SE 19 16.09 Partly Cloudy SCT110 26.5 24.4 88% 29 75.95 0.0
03 17:35 SE 17 16.09 Partly Cloudy SCT045 SCT070 SCT085 26.6 24.9 90% 30 75.97 0.0
03 17:15 SE 19 16.09 Partly Cloudy SCT060 SCT080 SCT110 27 26 94% 31 76 0.0
03 16:55 SE 17 16.09 Mostly Cloudy SCT032 SCT047 BKN100 26.5 25.6 95% 30 76 0.0
03 16:35 SE 19 16.09 Drizzle SCT034 BKN047 OVC080 26.3 25.2 94% 29 76.02 0.0
03 16:15 SE 15 16.09 Drizzle SCT039 SCT049 BKN090 26.5 24.9 91% 29 76.05 0.0
03 15:55 SE 11 16.09 Light Rain CLR 26.5 24.9 91% 29 76.05 0.0 0.1
03 15:35 E 9 16.09 Thunderstorm Light Drizzle in Vicinity CLR 26.3 25 93% 29 76.05 0.0
03 15:15 E 9 16.09 Partly Cloudy SCT005 SCT090 SCT120 26 24.7 93% 28 76.07 0.0
03 14:55 E 15 16.09 Mostly Cloudy SCT005 BKN120 26.1 25.1 94% 28 76.1 0.0
03 14:35 E 13 16.09 Partly Cloudy SCT120 26.5 25.6 95% 30 76.1 0.0
03 14:15 SE 11 16.09 Light Drizzle SCT046 SCT060 SCT075 26.3 25.8 97% 29 76.1 0.0
03 13:55 E 11 16.09 Light Rain SCT037 SCT046 BKN060 26 25.5 97% 28 76.12 0.0 0.1
03 13:35 E 7 11.27 Light Rain SCT047 BKN070 OVC085 25.5 25.1 98% 27 76.12 0.0 0.08
03 13:15 E 7 11.27 Light Rain SCT047 BKN060 OVC070 25.3 24.8 97% 26 76.15 0.0 0.03
03 12:55 NE 7 11.27 Light Rain SCT004 BKN050 OVC085 25.5 25 27.4 25.2 97% 27 76.17 0.0 0.15 0.84
03 12:35 NE 7 11.27 Light Rain SCT055 SCT075 OVC085 25.4 25 98% 27 76.2 0.0 0.1
03 12:15 E 6 11.27 Light Rain SCT050 SCT065 OVC080 25.3 24.9 98% 26 76.23 0.0 0.05
03 11:55 NE 6 11.27 Light Rain SCT050 SCT065 OVC090 25.3 24.8 97% 26 76.23 0.0 0.13
03 11:35 NE 7 11.27 Light Rain SCT085 OVC100 25.5 25 97% 27 76.23 0.0 0.1
03 11:15 E 9 11.27 Light Rain OVC085 25.6 25 97% 27 76.23 0.0 0.05
03 10:55 E 11 8.05 Thunderstorm Light Rain in Vicinity SCT022 SCT041 OVC085 25.8 25.1 96% 28 76.23 0.0 0.53
03 10:35 E 19 4.83 Rain SCT028 BKN050 OVC060 26.2 25.5 96% 29 76.2 0.0 0.36
03 10:15 E 17 11.27 Thunderstorm Rain in Vicinity SCT022 BKN034 OVC060 26.6 25.2 92% 30 76.2 0.0 0.05
03 09:55 SE 17 16.09 Overcast SCT022 BKN035 OVC060 27.1 25.3 90% 31 76.2 0.0
03 09:35 SE 19 16.09 Thunderstorm in Vicinity SCT013 BKN025 OVC048 27.4 25.4 89% 32 76.17 0.0
03 09:15 SE 17 16.09 Thunderstorm BKN013 OVC019 27 25.5 92% 31 76.17 0.0
03 08:55 SE 13 16.09 Thunderstorm OVC013 27 25.5 92% 31 76.17 0.0
03 08:35 SE 15 16.09 Thunderstorm in Vicinity OVC013 26.7 25.5 93% 30 76.15 0.0
03 08:15 SE 17 16.09 Overcast BKN009 OVC013 26.5 25.5 94% 30 76.12 0.0
03 07:55 E 11 16.09 Thunderstorm in Vicinity OVC008 26.5 25.5 94% 30 76.12 0.0
03 07:35 E 7 16.09 Overcast OVC010 26.6 25.5 94% 30 76.12 0.0
03 07:15 SE 9 16.09 Overcast OVC012 26.7 25.4 93% 30 76.1 0.0
03 06:55 S 13 16.09 Mostly Cloudy SCT012 BKN017 BKN023 26.7 25.3 26.7 25.3 92% 30 76.07 0.0
03 06:35 S 13 16.09 Partly Cloudy SCT017 SCT110 26.7 25.2 92% 30 76.07 0.0
03 06:15 S 9 16.09 Partly Cloudy SCT110 26.7 25.2 92% 30 76.05 0.0
03 05:55 S 11 16.09 Overcast OVC110 26.7 25.2 92% 30 76.05 0.0
03 05:35 S 9 16.09 Mostly Cloudy SCT010 BKN100 BKN120 26.6 25.2 92% 30 76.05 0.0
03 05:15 S 11 16.09 Partly Cloudy SCT010 SCT017 26.5 25.3 93% 30 76.05 0.0
03 04:55 S 13 16.09 Mostly Cloudy SCT010 BKN017 26.5 25.3 93% 30 76.05 0.0
03 04:35 S 9 16.09 Partly Cloudy SCT010 SCT017 26.5 25.3 93% 30 76.05 0.0
03 04:15 S 11 16.09 Mostly Cloudy SCT010 SCT019 BKN095 26.3 25.3 94% 29 76.05 0.0
03 03:55 S 11 16.09 Partly Cloudy SCT008 SCT019 SCT085 26.2 25.3 95% 29 76.07 0.0
03 03:35 S 7 16.09 Partly Cloudy SCT008 26 25.1 95% 28 76.05 0.0
03 03:15 S 7 16.09 Fair CLR 26 25 94% 28 76.05 0.0
03 02:55 S 11 16.09 Partly Cloudy SCT008 26 25 94% 28 76.05 0.0
03 02:35 S 11 16.09 Partly Cloudy SCT008 25.9 24.8 94% 28 76.05 0.0
03 02:15 S 11 16.09 Fair CLR 25.8 24.6 93% 28 76.02 0.0
03 01:55 S 11 16.09 Fair CLR 25.6 24.4 93% 27 76.05 0.0
03 01:35 S 9 16.09 Fair CLR 25.5 24 91% 27 76.05 0.0
03 01:15 S 9 16.09 Fair CLR 25.3 23.7 91% 26 76.05 0.0
03 00:55 S 9 16.09 Fair CLR 25.3 23.6 29.6 25 90% 26 76.05 0.0
03 00:35 S 9 16.09 Fair CLR 25.2 23.5 90% 26 76.07 0.0
03 00:15 S 13 16.09 Fair CLR 25.1 23.2 89% 26 76.07 0.0
02 23:55 S 15 16.09 Fair CLR 25 23 89% 26 76.07 0.0
02 23:35 S 17 16.09 Fair CLR 25 23.4 91% 26 76.07 0.0
02 23:15 SE 15 16.09 Fair CLR 25 23.7 93% 26 76.1 0.0
02 22:55 S 15 G 26 16.09 Thunderstorm in Vicinity CLR 25.2 23.6 91% 26 76.1 0.0
02 22:35 S 17 G 28 16.09 Fair CLR 25.3 24 93% 26 76.1 0.0
02 22:15 SE 20 G 31 16.09 Partly Cloudy SCT007 SCT010 SCT018 25.4 24.3 94% 27 76.1 0.0
02 21:55 SE 19 G 31 16.09 Mostly Cloudy SCT007 SCT021 BKN039 25.5 24.3 93% 27 76.07 0.0
02 21:35 S 24 G 37 16.09 Thunderstorm Drizzle SCT022 BKN070 OVC110 27.1 24.1 84% 30 76.07 0.0
02 21:15 S 17 16.09 Thunderstorm SCT050 OVC080 27.5 23.7 80% 31 76.07 0.0
02 20:55 SE 19 16.09 Thunderstorm in Vicinity BKN080 OVC100 27.5 23.7 80% 31 76 0.0
02 20:35 E 22 G 30 16.09 Thunderstorm in Vicinity BKN080 OVC090 27.9 23.1 75% 31 75.97 0.0
02 20:15 E 19 16.09 Overcast OVC080 28.2 22.8 73% 31 75.95 0.0
02 19:55 E 15 16.09 Mostly Cloudy SCT080 BKN120 28.6 22.7 70% 32 75.95 0.0
Date Time (cdt) Wind (kph) Vis. (km) Weather Sky Cond. Air Dwpt Max. Min. Relative Humidity Wind Chill (°C) Heat Index (°C) altimeter (cm) sea level (mb) 1 hr 3 hr 6 hr
6 hour
Temperature (ºC) Pressure Precipitation (cm)